Time;durP1;ratioP1;P1;durP2;ratioP2;P2;SDS_P1;SDS_P2;PMS_P1;PMS_P2;Temp;Humidity;BMP_temperature;BMP_pressure;BME280_temperature;BME280_humidity;BME280_pressure;Samples;Min_cycle;Max_cycle;Signal;HPM_P1;HPM_P2
2021/10/12 00:01:55;;;;;;;9.80;6.87;;;;;;;19.76;29.91;100518.37;1677119;85;21345;-69
2021/10/12 00:04:21;;;;;;;8.80;6.77;;;;;;;19.75;29.91;100516.25;1665559;84;21930;-69
2021/10/12 00:06:48;;;;;;;9.60;7.20;;;;;;;19.83;29.76;100519.03;1673093;84;21796;-69
2021/10/12 00:09:14;;;;;;;10.20;6.90;;;;;;;19.92;29.70;100514.95;1664486;83;21268;-70
2021/10/12 00:11:42;;;;;;;11.00;7.67;;;;;;;19.97;29.67;100508.45;1648061;86;21014;-70
2021/10/12 00:14:09;;;;;;;11.43;6.37;;;;;;;20.06;29.49;100505.67;1668918;85;21300;-71
2021/10/12 00:16:36;;;;;;;8.17;6.30;;;;;;;19.91;29.69;100500.12;1673978;83;22736;-69
2021/10/12 00:19:02;;;;;;;10.33;7.17;;;;;;;20.03;29.50;100500.86;1677401;85;21256;-69
2021/10/12 00:21:29;;;;;;;10.70;6.37;;;;;;;19.93;29.82;100502.83;1676534;83;21198;-70
2021/10/12 00:23:57;;;;;;;11.70;7.30;;;;;;;20.11;29.51;100501.78;1671637;85;21298;-70
2021/10/12 00:26:24;;;;;;;10.03;6.60;;;;;;;20.13;29.53;100502.36;1676874;84;21280;-69
2021/10/12 00:28:50;;;;;;;10.50;6.40;;;;;;;20.15;29.52;100500.28;1671180;83;21312;-69
2021/10/12 00:31:17;;;;;;;14.87;6.67;;;;;;;20.14;29.49;100497.86;1678922;83;21182;-70
2021/10/12 00:33:43;;;;;;;12.07;6.40;;;;;;;19.87;29.76;100497.67;1679437;83;21636;-70
2021/10/12 00:36:11;;;;;;;10.80;6.77;;;;;;;20.07;29.70;100498.53;1678101;84;21074;-69
2021/10/12 00:38:37;;;;;;;10.63;7.00;;;;;;;20.09;29.69;100505.20;1662794;85;22658;-69
2021/10/12 00:41:08;;;;;;;9.47;6.57;;;;;;;20.13;29.59;100499.71;1646136;85;21174;-68
2021/10/12 00:43:35;;;;;;;9.77;6.80;;;;;;;19.83;29.88;100495.23;1666533;85;21499;-68
2021/10/12 00:46:02;;;;;;;13.53;6.53;;;;;;;19.97;29.88;100496.54;1669404;85;21296;-69
2021/10/12 00:48:29;;;;;;;13.20;6.80;;;;;;;19.82;30.03;100498.40;1666977;83;21302;-68
2021/10/12 00:50:55;;;;;;;11.43;6.97;;;;;;;19.84;29.95;100503.44;1677843;85;21786;-68
2021/10/12 00:53:22;;;;;;;9.83;6.90;;;;;;;19.86;30.08;100497.41;1668559;85;21375;-69
2021/10/12 00:55:48;;;;;;;8.70;6.87;;;;;;;19.72;30.18;100491.59;1668508;85;21085;-70
2021/10/12 00:58:15;;;;;;;9.13;6.47;;;;;;;19.72;30.33;100489.48;1678462;84;21338;-69
2021/10/12 01:00:43;;;;;;;12.87;7.20;;;;;;;19.75;30.25;100490.33;1669040;84;21062;-70
2021/10/12 01:03:10;;;;;;;9.90;6.87;;;;;;;19.73;30.31;100488.43;1678860;85;21681;-69
2021/10/12 01:05:36;;;;;;;11.23;6.87;;;;;;;19.66;30.42;100489.89;1679409;85;21344;-69
2021/10/12 01:08:05;;;;;;;11.00;7.90;;;;;;;19.68;30.54;100485.18;1676223;85;21248;-68
2021/10/12 01:10:31;;;;;;;9.53;7.00;;;;;;;19.66;30.50;100485.43;1657527;85;22652;-68
2021/10/12 01:12:58;;;;;;;11.63;7.20;;;;;;;19.79;30.43;100480.36;1668446;83;21358;-68
2021/10/12 01:15:26;;;;;;;11.20;8.00;;;;;;;19.66;30.60;100481.46;1678777;84;21246;-68
2021/10/12 01:17:52;;;;;;;9.93;7.73;;;;;;;19.59;30.68;100481.30;1678213;85;21375;-70
2021/10/12 01:20:18;;;;;;;11.13;7.27;;;;;;;19.83;30.47;100479.36;1648164;85;22763;-69
2021/10/12 01:22:47;;;;;;;11.03;6.93;;;;;;;19.84;30.45;100472.49;1679208;85;21307;-68
2021/10/12 01:25:15;;;;;;;11.20;7.30;;;;;;;19.76;30.54;100472.89;1666425;85;21150;-68
2021/10/12 01:27:41;;;;;;;15.47;7.80;;;;;;;19.81;30.52;100480.10;1678915;85;21239;-71
2021/10/12 01:30:09;;;;;;;11.73;7.30;;;;;;;19.72;30.66;100478.38;1667229;85;21205;-69
2021/10/12 01:32:40;;;;;;;11.53;7.80;;;;;;;19.65;30.81;100477.19;1661942;85;21205;-69
2021/10/12 01:35:08;;;;;;;10.70;7.87;;;;;;;19.75;30.78;100477.91;1665237;83;21612;-69
2021/10/12 01:37:35;;;;;;;12.50;7.83;;;;;;;19.79;30.83;100472.94;1673435;83;21122;-70
2021/10/12 01:40:04;;;;;;;10.33;7.77;;;;;;;19.83;30.80;100472.74;1677645;83;21257;-68
2021/10/12 01:42:31;;;;;;;13.23;8.80;;;;;;;19.85;30.79;100470.16;1712690;83;21132;-68
2021/10/12 01:45:01;;;;;;;12.40;8.37;;;;;;;19.69;31.02;100469.06;1701277;82;21176;-68
2021/10/12 01:47:29;;;;;;;10.53;7.50;;;;;;;19.69;31.02;100465.62;1717403;81;21239;-68
2021/10/12 01:49:56;;;;;;;14.53;8.40;;;;;;;19.59;31.23;100465.43;1709236;82;21087;-68
2021/10/12 01:52:23;;;;;;;12.37;8.83;;;;;;;19.57;31.26;100465.65;1705664;82;21421;-70
2021/10/12 01:54:50;;;;;;;15.63;9.63;;;;;;;19.65;31.22;100469.25;1702610;82;21312;-71
2021/10/12 01:57:18;;;;;;;13.93;9.57;;;;;;;19.71;31.14;100464.88;1703947;82;21071;-70
2021/10/12 01:59:46;;;;;;;13.10;9.37;;;;;;;19.85;31.02;100468.83;1700807;82;21383;-68
2021/10/12 02:02:12;;;;;;;12.00;9.40;;;;;;;19.83;31.03;100468.77;1705177;82;21340;-68
2021/10/12 02:04:39;;;;;;;14.80;9.40;;;;;;;19.77;31.10;100470.52;1704134;82;21312;-68
2021/10/12 02:07:06;;;;;;;14.00;9.40;;;;;;;19.85;31.09;100468.00;1712989;82;21181;-68
2021/10/12 02:09:32;;;;;;;14.33;9.47;;;;;;;19.82;31.19;100467.18;1715425;82;21258;-69
2021/10/12 02:11:59;;;;;;;13.77;9.70;;;;;;;19.79;31.27;100461.84;1705640;83;21419;-68
2021/10/12 02:14:26;;;;;;;12.73;9.80;;;;;;;19.98;31.08;100465.06;1716545;83;21813;-68
2021/10/12 02:16:53;;;;;;;15.33;10.07;;;;;;;20.03;31.04;100461.69;1709192;81;21328;-68
2021/10/12 02:19:19;;;;;;;13.30;10.80;;;;;;;20.10;31.03;100461.81;1711274;83;21227;-69
2021/10/12 02:21:46;;;;;;;14.57;10.20;;;;;;;20.18;30.87;100461.41;1706473;83;21523;-68
2021/10/12 02:24:12;;;;;;;15.90;11.57;;;;;;;20.26;30.78;100462.05;1711696;83;21795;-69
2021/10/12 02:26:39;;;;;;;15.30;11.33;;;;;;;20.25;30.84;100469.71;1711599;83;21170;-68
2021/10/12 02:29:06;;;;;;;13.47;10.47;;;;;;;20.21;30.84;100472.03;1704794;82;21255;-68
2021/10/12 02:31:32;;;;;;;15.63;11.83;;;;;;;20.31;30.89;100470.08;1715622;83;21244;-69
2021/10/12 02:33:59;;;;;;;13.87;11.07;;;;;;;20.29;30.89;100470.30;1717845;83;21312;-68
2021/10/12 02:36:25;;;;;;;13.53;10.77;;;;;;;20.29;31.05;100465.53;1709552;81;21025;-70
2021/10/12 02:38:52;;;;;;;16.70;11.87;;;;;;;20.32;31.02;100463.73;1704663;83;21242;-68
2021/10/12 02:41:18;;;;;;;16.67;11.87;;;;;;;20.42;30.90;100457.27;1708835;83;21068;-69
2021/10/12 02:43:45;;;;;;;14.37;11.43;;;;;;;20.40;30.96;100458.02;1723252;82;21288;-68
2021/10/12 02:46:11;;;;;;;15.23;11.87;;;;;;;20.23;31.19;100461.20;1709342;83;21191;-68
2021/10/12 02:48:38;;;;;;;16.33;11.90;;;;;;;20.02;31.39;100458.25;1710670;83;21301;-69
2021/10/12 02:51:04;;;;;;;18.53;12.57;;;;;;;20.48;31.01;100465.55;1711238;83;21239;-71
2021/10/12 02:53:31;;;;;;;15.63;11.77;;;;;;;20.53;30.79;100461.70;1706926;83;21305;-73
2021/10/12 02:55:58;;;;;;;20.00;11.40;;;;;;;20.59;30.72;100459.38;1714329;81;21330;-68
2021/10/12 02:58:24;;;;;;;16.30;12.20;;;;;;;20.45;30.91;100454.12;1715212;82;21103;-67
2021/10/12 03:00:51;;;;;;;16.50;12.50;;;;;;;20.38;31.01;100454.31;1700139;81;21277;-68
2021/10/12 03:03:17;;;;;;;15.97;11.80;;;;;;;20.36;31.11;100454.27;1743301;80;21856;-69
2021/10/12 03:05:45;;;;;;;17.67;12.43;;;;;;;20.41;31.01;100456.97;1740379;80;21263;-68
2021/10/12 03:08:11;;;;;;;18.17;12.20;;;;;;;20.40;31.08;100451.41;1750607;81;21346;-68
2021/10/12 03:10:38;;;;;;;18.33;12.40;;;;;;;20.36;31.16;100446.32;1748957;80;21258;-69
2021/10/12 03:13:04;;;;;;;16.73;13.20;;;;;;;20.37;31.20;100446.59;1743876;80;21189;-71
2021/10/12 03:15:31;;;;;;;18.87;14.50;;;;;;;20.28;31.33;100444.09;1706738;81;21337;-70
2021/10/12 03:17:58;;;;;;;19.37;13.23;;;;;;;20.30;31.29;100441.98;1749055;81;21370;-68
2021/10/12 03:20:24;;;;;;;19.23;13.00;;;;;;;20.14;31.54;100448.38;1746035;81;22825;-68
2021/10/12 03:22:51;;;;;;;18.30;13.90;;;;;;;20.30;31.38;100442.78;1750241;80;21312;-68
2021/10/12 03:25:17;;;;;;;16.63;13.30;;;;;;;20.13;31.60;100442.81;1748506;80;21232;-68
2021/10/12 03:27:44;;;;;;;19.90;14.20;;;;;;;20.29;31.46;100436.42;1750448;80;21334;-68
2021/10/12 03:30:12;;;;;;;17.63;13.27;;;;;;;20.34;31.39;100440.45;1740002;80;21221;-69
2021/10/12 03:32:38;;;;;;;19.93;13.10;;;;;;;20.28;31.46;100440.11;1715857;82;22654;-67
2021/10/12 03:35:06;;;;;;;18.00;14.00;;;;;;;20.18;31.61;100437.58;1717825;82;21108;-74
2021/10/12 03:37:32;;;;;;;19.20;13.77;;;;;;;20.18;31.63;100434.94;1721515;82;22382;-67
2021/10/12 03:39:59;;;;;;;21.10;13.97;;;;;;;20.23;31.61;100444.82;1723327;82;21233;-70
2021/10/12 03:42:25;;;;;;;19.93;13.77;;;;;;;20.25;31.72;100443.23;1724376;82;21313;-70
2021/10/12 03:44:52;;;;;;;18.63;13.53;;;;;;;20.22;31.79;100439.75;1749849;80;21411;-71
2021/10/12 03:47:19;;;;;;;19.00;14.20;;;;;;;20.24;31.81;100430.53;1749149;81;21169;-67
2021/10/12 03:49:45;;;;;;;23.03;14.90;;;;;;;20.36;31.65;100430.44;1750023;80;21156;-67
2021/10/12 03:52:12;;;;;;;19.60;14.13;;;;;;;20.43;31.65;100431.06;1751626;80;21760;-66
2021/10/12 03:54:38;;;;;;;18.40;13.87;;;;;;;20.33;31.86;100430.39;1745299;81;21314;-65
2021/10/12 03:57:06;;;;;;;25.13;14.53;;;;;;;20.31;31.92;100430.37;1735537;80;21372;-72
2021/10/12 03:59:32;;;;;;;19.47;14.07;;;;;;;20.30;31.98;100434.04;1732611;81;21350;-67
2021/10/12 04:02:00;;;;;;;26.17;16.97;;;;;;;20.23;32.07;100426.78;1745704;80;21095;-69
2021/10/12 04:04:27;;;;;;;27.07;18.17;;;;;;;20.13;32.22;100432.22;1735188;82;21303;-69
2021/10/12 04:06:55;;;;;;;26.03;17.20;;;;;;;19.89;32.51;100430.27;1741062;80;21743;-73
2021/10/12 04:09:21;;;;;;;24.90;16.60;;;;;;;19.98;32.50;100428.02;1737554;82;21245;-65
2021/10/12 04:11:49;;;;;;;25.60;16.50;;;;;;;19.87;32.61;100423.61;1730143;82;21132;-68
2021/10/12 04:14:15;;;;;;;21.50;15.50;;;;;;;19.96;32.59;100421.35;1737953;80;21541;-68
2021/10/12 04:16:42;;;;;;;23.27;16.00;;;;;;;20.02;32.41;100423.84;1739093;82;21301;-68
2021/10/12 04:19:08;;;;;;;21.03;15.87;;;;;;;19.88;32.54;100424.67;1732877;80;21286;-70
2021/10/12 04:21:34;;;;;;;22.37;15.80;;;;;;;20.09;32.44;100425.02;1734691;82;21524;-68
2021/10/12 04:24:01;;;;;;;20.80;16.13;;;;;;;20.12;32.37;100422.69;1724674;82;21289;-68
2021/10/12 04:26:29;;;;;;;22.70;16.73;;;;;;;20.19;32.25;100426.47;1729174;82;21331;-70
2021/10/12 04:28:56;;;;;;;22.90;16.20;;;;;;;19.94;32.59;100420.28;1734237;82;21296;-73
2021/10/12 04:31:22;;;;;;;24.07;17.00;;;;;;;19.94;32.64;100430.87;1735924;82;21349;-68
2021/10/12 04:33:49;;;;;;;23.50;16.80;;;;;;;20.14;32.41;100420.58;1734422;80;21257;-69
2021/10/12 04:36:16;;;;;;;26.23;17.50;;;;;;;20.38;32.18;100415.92;1738570;80;20999;-70
2021/10/12 04:38:42;;;;;;;23.97;16.97;;;;;;;20.54;32.05;100418.80;1734095;82;21264;-74
2021/10/12 04:41:09;;;;;;;23.30;15.40;;;;;;;20.41;32.19;100415.41;1738640;80;21214;-70
2021/10/12 04:43:36;;;;;;;23.43;16.33;;;;;;;20.37;32.28;100416.94;1742602;80;21649;-68
2021/10/12 04:46:03;;;;;;;22.07;14.87;;;;;;;20.35;32.32;100406.34;1740430;80;21903;-69
2021/10/12 04:48:29;;;;;;;22.70;16.00;;;;;;;20.26;32.57;100411.22;1741206;80;21196;-73
2021/10/12 04:50:56;;;;;;;23.23;17.07;;;;;;;20.30;32.51;100412.34;1730970;80;21162;-73
2021/10/12 04:53:23;;;;;;;21.27;14.50;;;;;;;20.13;32.69;100413.70;1720296;80;21245;-69
2021/10/12 04:55:50;;;;;;;23.20;16.33;;;;;;;20.07;32.86;100409.36;1729418;80;21172;-68
2021/10/12 04:58:17;;;;;;;22.00;16.23;;;;;;;20.06;32.89;100410.94;1738660;82;21273;-68
2021/10/12 05:00:43;;;;;;;22.20;16.77;;;;;;;20.10;32.88;100409.41;1720634;82;21204;-73
2021/10/12 05:03:10;;;;;;;25.03;18.33;;;;;;;20.18;32.81;100415.61;1726860;81;21349;-73
2021/10/12 05:05:36;;;;;;;24.80;17.70;;;;;;;20.10;32.91;100416.02;1726945;81;21927;-68
2021/10/12 05:08:05;;;;;;;22.53;17.63;;;;;;;20.02;33.09;100411.94;1724294;82;21155;-68
2021/10/12 05:10:31;;;;;;;23.33;17.23;;;;;;;20.21;32.96;100410.36;1709578;82;21160;-69
2021/10/12 05:12:58;;;;;;;24.50;18.10;;;;;;;20.30;32.88;100411.02;1718425;82;21298;-70
2021/10/12 05:15:27;;;;;;;27.30;17.07;;;;;;;20.58;32.46;100406.14;1704684;81;21980;-68
2021/10/12 05:17:57;;;;;;;23.57;16.80;;;;;;;20.73;32.27;100400.23;1693842;81;21294;-67
2021/10/12 05:20:25;;;;;;;21.63;15.27;;;;;;;20.78;32.16;100398.97;1721561;81;21162;-67
2021/10/12 05:22:52;;;;;;;21.70;15.87;;;;;;;20.95;31.88;100396.27;1715978;81;21229;-72
2021/10/12 05:25:19;;;;;;;22.60;16.37;;;;;;;21.02;31.85;100392.87;1725007;82;21235;-68
2021/10/12 05:27:45;;;;;;;22.77;16.23;;;;;;;21.11;31.72;100384.77;1727253;81;21119;-67
2021/10/12 05:30:13;;;;;;;22.03;16.50;;;;;;;21.07;32.14;100383.66;1707216;81;21420;-67
2021/10/12 05:32:40;;;;;;;20.13;15.07;;;;;;;21.54;31.46;100383.07;1713553;82;21439;-72
2021/10/12 05:35:09;;;;;;;21.80;15.50;;;;;;;21.54;31.46;100383.07;1709414;81;21998;-68
2021/10/12 05:37:36;;;;;;;22.00;16.50;;;;;;;21.78;31.04;100384.05;1702100;82;22679;-69
2021/10/12 05:40:04;;;;;;;20.90;15.77;;;;;;;22.10;30.50;100382.16;1727091;82;22180;-70
2021/10/12 05:42:32;;;;;;;21.73;15.97;;;;;;;22.19;30.10;100378.52;1721626;81;21639;-68
2021/10/12 05:44:59;;;;;;;22.83;16.37;;;;;;;22.17;30.13;100380.64;1714880;82;21664;-69
2021/10/12 05:47:25;;;;;;;24.20;16.40;;;;;;;22.19;29.95;100383.03;1719916;81;21815;-67
2021/10/12 05:49:52;;;;;;;22.03;16.47;;;;;;;22.01;30.12;100385.03;1700818;82;22263;-69
2021/10/12 05:52:21;;;;;;;22.77;16.53;;;;;;;21.91;30.28;100382.30;1720285;81;22153;-69
2021/10/12 05:54:52;;;;;;;22.53;15.07;;;;;;;21.91;30.41;100377.52;1716788;82;21595;-71
2021/10/12 05:57:35;;;;;;;25.70;17.13;;;;;;;22.08;30.40;100377.62;1695597;81;23067;-66
2021/10/12 05:59:49;;;;;;;23.97;17.33;;;;;;;22.57;30.01;100376.05;1710491;82;21738;-67
2021/10/12 06:02:16;;;;;;;24.37;15.93;;;;;;;22.80;29.66;100380.65;1705655;82;21659;-65
2021/10/12 06:04:42;;;;;;;22.03;16.57;;;;;;;23.02;29.60;100377.83;1719488;82;22174;-72
2021/10/12 06:07:09;;;;;;;25.40;16.43;;;;;;;23.25;29.41;100379.20;1715769;82;21803;-66
2021/10/12 06:09:36;;;;;;;22.30;16.33;;;;;;;23.43;28.92;100375.23;1720648;82;22738;-66
2021/10/12 06:12:05;;;;;;;20.97;15.67;;;;;;;23.38;29.04;100373.38;1722194;82;21529;-68
2021/10/12 06:14:33;;;;;;;24.23;15.07;;;;;;;23.44;28.86;100368.30;1722877;82;20945;-69
2021/10/12 06:16:59;;;;;;;22.30;14.90;;;;;;;23.60;28.62;100370.96;1720738;82;21406;-69
2021/10/12 06:19:26;;;;;;;20.23;14.63;;;;;;;23.30;28.60;100356.61;1705685;82;21181;-70
2021/10/12 06:21:53;;;;;;;21.17;15.53;;;;;;;23.30;28.60;100356.61;1713855;82;21003;-69
2021/10/12 06:24:19;;;;;;;22.37;15.50;;;;;;;23.34;29.21;100360.88;1720249;82;21180;-70
2021/10/12 06:26:46;;;;;;;19.10;14.50;;;;;;;23.43;29.21;100361.39;1716867;82;21418;-70
2021/10/12 06:29:12;;;;;;;21.03;15.57;;;;;;;23.66;28.86;100366.74;1721544;82;21040;-67
2021/10/12 06:31:38;;;;;;;18.53;14.23;;;;;;;23.91;28.84;100360.61;1720388;82;21667;-68
2021/10/12 06:34:05;;;;;;;21.27;15.37;;;;;;;24.24;28.46;100357.88;1722022;81;21142;-67
2021/10/12 06:36:31;;;;;;;22.07;15.40;;;;;;;24.68;28.14;100353.72;1721837;82;23087;-67
2021/10/12 06:38:58;;;;;;;24.07;15.40;;;;;;;24.91;27.47;100357.59;1717720;82;21068;-67
2021/10/12 06:41:25;;;;;;;19.37;14.30;;;;;;;24.88;27.46;100356.80;1724155;82;21511;-67
2021/10/12 06:43:53;;;;;;;19.47;14.93;;;;;;;24.89;27.57;100357.88;1725833;82;20992;-67
2021/10/12 06:46:19;;;;;;;20.87;15.27;;;;;;;25.04;27.44;100348.16;1726308;82;21083;-67
2021/10/12 06:48:48;;;;;;;18.90;14.00;;;;;;;25.19;27.27;100344.91;1726388;82;20981;-65
2021/10/12 06:51:14;;;;;;;18.40;14.20;;;;;;;25.19;27.20;100344.91;1717579;81;22196;-64
2021/10/12 06:53:44;;;;;;;18.97;13.87;;;;;;;25.21;27.21;100334.74;1725943;82;20909;-69
2021/10/12 06:56:10;;;;;;;19.37;13.73;;;;;;;25.11;27.29;100330.80;1701877;81;21384;-66
2021/10/12 06:58:36;;;;;;;19.13;13.70;;;;;;;25.12;27.40;100331.63;1711719;82;21044;-65
2021/10/12 07:01:03;;;;;;;16.20;13.50;;;;;;;25.12;27.41;100335.63;1710839;81;22335;-68
2021/10/12 07:03:29;;;;;;;21.00;13.80;;;;;;;25.22;27.26;100330.98;1739994;80;21521;-66
2021/10/12 07:05:57;;;;;;;22.63;13.47;;;;;;;25.30;27.03;100332.81;1720615;81;21017;-66
2021/10/12 07:08:24;;;;;;;20.77;13.47;;;;;;;25.17;27.15;100334.25;1751569;80;21630;-66
2021/10/12 07:10:54;;;;;;;22.43;14.77;;;;;;;25.17;27.34;100343.58;1747188;80;21568;-68
2021/10/12 07:13:29;;;;;;;19.37;12.50;;;;;;;25.11;27.36;100340.14;1748724;80;20991;-65
2021/10/12 07:15:53;;;;;;;25.93;17.63;;;;;;;24.79;27.65;100338.47;1758686;80;20992;-67
2021/10/12 07:18:19;;;;;;;20.80;14.50;;;;;;;25.01;27.65;100337.53;1747048;80;21083;-66
2021/10/12 07:20:46;;;;;;;17.20;12.40;;;;;;;24.86;27.81;100337.09;1742053;80;20986;-70
2021/10/12 07:23:12;;;;;;;19.47;12.53;;;;;;;24.81;28.01;100337.10;1724569;81;21055;-68
2021/10/12 07:25:39;;;;;;;15.93;12.27;;;;;;;24.89;28.04;100335.21;1735374;81;21164;-72
2021/10/12 07:28:06;;;;;;;16.67;12.07;;;;;;;25.12;27.87;100336.97;1739888;80;21082;-65
2021/10/12 07:30:32;;;;;;;19.07;12.40;;;;;;;25.04;27.94;100333.50;1713652;82;20949;-69
2021/10/12 07:32:59;;;;;;;17.80;11.97;;;;;;;25.24;27.80;100330.19;1710151;81;21821;-71
2021/10/12 07:35:25;;;;;;;21.23;12.03;;;;;;;25.38;27.83;100325.53;1720896;82;21106;-66
2021/10/12 07:37:52;;;;;;;37.53;19.30;;;;;;;25.51;27.65;100335.58;1719210;81;21152;-68
2021/10/12 07:40:19;;;;;;;22.33;13.57;;;;;;;25.66;27.55;100335.98;1712783;82;21120;-65
2021/10/12 07:42:45;;;;;;;16.63;10.83;;;;;;;26.02;27.25;100331.09;1716059;82;21083;-67
2021/10/12 07:45:12;;;;;;;24.37;14.97;;;;;;;26.16;27.36;100327.20;1714729;82;21067;-68
2021/10/12 07:47:39;;;;;;;29.97;19.13;;;;;;;26.22;27.56;100333.30;1717985;82;21013;-66
2021/10/12 07:50:07;;;;;;;28.30;17.37;;;;;;;26.38;27.53;100323.45;1703173;82;21959;-69
2021/10/12 07:52:36;;;;;;;22.00;12.33;;;;;;;26.54;28.25;100323.30;1678530;84;21007;-65
2021/10/12 07:57:34;;;;;;;31.20;21.37;;;;;;;26.55;29.07;100326.21;1711714;83;22075;-65
2021/10/12 08:00:01;;;;;;;26.13;15.17;;;;;;;26.57;29.45;100320.05;1719344;83;21079;-70
2021/10/12 08:02:27;;;;;;;48.33;36.83;;;;;;;26.68;29.64;100318.83;1708186;82;21494;-64
2021/10/12 08:04:54;;;;;;;47.20;31.93;;;;;;;26.72;29.88;100314.48;1679794;83;21534;-66
2021/10/12 08:07:22;;;;;;;51.67;38.67;;;;;;;26.53;30.31;100313.14;1729477;80;21051;-65
2021/10/12 08:09:49;;;;;;;19.57;11.73;;;;;;;26.38;30.65;100311.44;1751896;80;21015;-64
2021/10/12 08:12:16;;;;;;;44.83;32.23;;;;;;;26.51;30.31;100303.27;1741197;81;21048;-67
2021/10/12 08:14:47;;;;;;;107.07;73.73;;;;;;;26.47;30.57;100302.25;1737349;81;21140;-64
2021/10/12 08:17:11;;;;;;;85.40;47.97;;;;;;;27.02;29.95;100295.86;1738410;80;21576;-68
2021/10/12 08:19:38;;;;;;;31.33;18.10;;;;;;;27.40;29.28;100287.22;1708371;82;21020;-65
2021/10/12 08:22:05;;;;;;;17.43;9.10;;;;;;;27.64;29.15;100274.20;1703639;82;21083;-64
2021/10/12 08:24:31;;;;;;;16.00;7.53;;;;;;;27.91;28.94;100272.66;1723486;80;20965;-64
2021/10/12 08:26:58;;;;;;;35.10;22.57;;;;;;;27.96;28.75;100268.53;1725127;81;21154;-66
2021/10/12 08:29:27;;;;;;;39.17;28.17;;;;;;;27.82;29.04;100262.64;1723230;81;20999;-67
2021/10/12 08:31:53;;;;;;;20.70;11.63;;;;;;;28.05;28.81;100265.41;1729386;81;21079;-66
2021/10/12 08:34:19;;;;;;;19.50;12.23;;;;;;;28.18;28.46;100261.91;1700222;82;21012;-65
2021/10/12 08:36:46;;;;;;;34.30;21.17;;;;;;;28.54;28.44;100261.17;1701557;82;20996;-68
2021/10/12 08:39:12;;;;;;;20.33;13.53;;;;;;;28.86;27.97;100267.64;1699785;82;22752;-66
2021/10/12 08:41:53;;;;;;;22.80;16.83;;;;;;;28.73;27.89;100260.45;1701644;82;21031;-65
2021/10/12 08:44:20;;;;;;;96.45;75.60;;;;;;;28.49;28.31;100257.25;1744364;81;20957;-65
2021/10/12 08:46:47;;;;;;;60.97;46.53;;;;;;;28.40;28.46;100252.38;1739935;80;20972;-64
2021/10/12 08:49:14;;;;;;;29.33;19.30;;;;;;;28.22;28.72;100246.80;1745474;81;21075;-67
2021/10/12 08:51:44;;;;;;;20.50;13.77;;;;;;;28.28;28.83;100243.48;1744237;81;21126;-65
2021/10/12 08:54:14;;;;;;;15.10;10.30;;;;;;;28.22;28.88;100248.70;1734690;80;21067;-64
2021/10/12 08:56:40;;;;;;;16.93;11.43;;;;;;;28.02;28.99;100231.96;1733493;81;20869;-69
2021/10/12 08:59:07;;;;;;;22.13;14.43;;;;;;;27.93;29.06;100232.98;1745010;81;20936;-68
2021/10/12 09:02:03;;;;;;;17.73;8.83;;;;;;;28.03;28.90;100232.20;1733595;80;21045;-65
2021/10/12 09:04:40;;;;;;;23.43;16.67;;;;;;;28.29;28.67;100224.96;1742796;80;21021;-69
2021/10/12 09:07:24;;;;;;;39.03;28.03;;;;;;;28.46;28.22;100214.97;1740523;81;21047;-66
2021/10/12 09:09:52;;;;;;;12.87;8.63;;;;;;;28.57;28.21;100205.59;1731642;81;21041;-64
2021/10/12 09:12:19;;;;;;;33.03;26.90;;;;;;;29.05;27.94;100198.25;1735130;80;21399;-67
2021/10/12 09:14:58;;;;;;;42.10;32.43;;;;;;;29.80;27.08;100194.61;1746430;80;21215;-65
2021/10/12 09:17:34;;;;;;;26.33;21.07;;;;;;;29.96;27.03;100191.47;1736204;80;21004;-67
2021/10/12 09:20:16;;;;;;;16.80;10.97;;;;;;;30.25;26.88;100189.55;1746628;80;20897;-68
2021/10/12 09:23:12;;;;;;;18.40;12.47;;;;;;;30.58;26.49;100188.52;1735477;81;20871;-66
2021/10/12 09:25:44;;;;;;;12.93;7.93;;;;;;;30.42;26.66;100184.71;1734416;81;21567;-68
2021/10/12 09:28:24;;;;;;;70.33;54.30;;;;;;;30.54;26.58;100184.88;1740947;80;21081;-66
2021/10/12 09:30:54;;;;;;;67.23;47.47;;;;;;;30.78;26.42;100158.27;1734084;80;21134;-69
2021/10/12 09:33:21;;;;;;;97.67;68.40;;;;;;;30.84;26.13;100164.81;1735006;81;20864;-67
2021/10/12 09:35:47;;;;;;;25.00;19.37;;;;;;;30.57;26.06;100167.30;1726339;80;21689;-68
2021/10/12 09:38:15;;;;;;;42.23;29.13;;;;;;;29.98;26.63;100157.81;1728297;81;21032;-67
2021/10/12 09:40:43;;;;;;;32.13;25.33;;;;;;;29.83;26.96;100154.80;1736196;81;21131;-65
2021/10/12 09:43:09;;;;;;;25.13;17.60;;;;;;;30.00;27.01;100147.55;1743072;81;21134;-66
2021/10/12 09:45:42;;;;;;;13.53;8.23;;;;;;;30.17;27.04;100144.09;1738963;81;20954;-66
2021/10/12 09:48:32;;;;;;;10.50;6.37;;;;;;;30.15;27.16;100148.16;1739694;81;21541;-68
2021/10/12 09:51:13;;;;;;;10.50;7.57;;;;;;;30.51;26.61;100132.50;1728774;81;21070;-70
2021/10/12 09:53:42;;;;;;;16.30;10.72;;;;;;;30.68;26.47;100129.52;1720480;81;27092;-65
2021/10/12 09:56:11;;;;;;;11.80;7.65;;;;;;;30.85;26.24;100132.77;1740296;82;21077;-69
2021/10/12 09:58:39;;;;;;;10.30;6.13;;;;;;;30.98;26.17;100131.75;1692136;84;20995;-70
2021/10/12 10:01:08;;;;;;;10.40;6.40;;;;;;;31.10;25.59;100129.16;1740978;81;21090;-66
2021/10/12 10:03:36;;;;;;;13.72;7.10;;;;;;;30.96;25.80;100127.27;1740050;82;20979;-65
2021/10/12 10:06:12;;;;;;;9.83;6.40;;;;;;;31.05;25.89;100136.09;1740435;81;20975;-65
2021/10/12 10:08:47;;;;;;;11.67;7.13;;;;;;;31.00;25.80;100103.97;1729193;82;21143;-72
2021/10/12 10:11:13;;;;;;;106.87;88.23;;;;;;;30.86;25.98;100115.50;1720410;82;21342;-66
2021/10/12 10:13:40;;;;;;;22.37;18.23;;;;;;;30.79;25.92;100105.23;1730528;81;20985;-66
2021/10/12 10:16:09;;;;;;;11.70;6.83;;;;;;;30.88;26.04;100107.91;1740160;82;20982;-66
2021/10/12 10:18:38;;;;;;;11.37;6.37;;;;;;;30.91;26.10;100101.85;1739748;81;21005;-73
2021/10/12 10:21:04;;;;;;;21.20;14.67;;;;;;;30.95;26.07;100091.48;1741125;81;21215;-66
2021/10/12 10:24:01;;;;;;;9.30;6.03;;;;;;;31.04;26.01;100092.78;1722006;81;20909;-65
2021/10/12 10:26:31;;;;;;;20.90;12.93;;;;;;;31.22;25.80;100092.15;1724808;81;21522;-64
2021/10/12 10:29:19;;;;;;;14.97;9.50;;;;;;;30.93;25.92;100103.68;1727562;81;21031;-64
2021/10/12 10:31:47;;;;;;;24.63;20.77;;;;;;;30.87;26.34;100100.92;1739625;81;21034;-71
2021/10/12 10:34:38;;;;;;;15.23;8.53;;;;;;;31.00;25.95;100087.26;1729109;82;21131;-64
2021/10/12 10:37:23;;;;;;;23.45;17.25;;;;;;;30.83;26.14;100082.50;1741185;81;21448;-65
2021/10/12 10:39:53;;;;;;;15.33;9.77;;;;;;;30.96;26.23;100085.55;1740204;81;22409;-66
2021/10/12 10:42:41;;;;;;;7.05;4.90;;;;;;;31.03;26.32;100087.17;1739701;81;20994;-65
2021/10/12 10:45:09;;;;;;;10.30;5.63;;;;;;;30.83;26.24;100080.59;1738402;82;20970;-65
2021/10/12 10:47:47;;;;;;;11.73;5.53;;;;;;;31.12;26.03;100082.52;1729993;81;21167;-65
2021/10/12 10:50:27;;;;;;;19.77;6.53;;;;;;;30.78;26.24;100070.02;1735356;80;20974;-64
2021/10/12 10:52:59;;;;;;;12.57;6.73;;;;;;;30.97;26.20;100068.27;1728485;81;20979;-65
2021/10/12 10:55:36;;;;;;;13.90;7.10;;;;;;;30.94;26.21;100062.97;1738945;81;21449;-64
2021/10/12 10:58:17;;;;;;;13.20;7.00;;;;;;;30.84;26.28;100057.16;1726063;81;20991;-66
2021/10/12 11:00:56;;;;;;;14.80;6.07;;;;;;;30.85;26.34;100059.55;1738364;81;21146;-69
2021/10/12 11:03:36;;;;;;;10.00;5.50;;;;;;;30.99;26.18;100044.52;1734167;80;21066;-66
2021/10/12 11:06:16;;;;;;;11.23;6.43;;;;;;;30.69;26.25;100045.81;1725085;81;21056;-74
2021/10/12 11:09:03;;;;;;;16.10;9.13;;;;;;;30.78;26.28;100043.89;1717186;81;21049;-66
2021/10/12 11:11:36;;;;;;;12.80;8.43;;;;;;;30.80;26.21;100041.42;1673147;81;21517;-68
2021/10/12 11:14:03;;;;;;;9.10;5.80;;;;;;;31.01;26.15;100033.64;1722971;81;21140;-67
2021/10/12 11:16:35;;;;;;;8.83;5.60;;;;;;;31.13;25.86;100032.94;1730367;81;21089;-64
2021/10/12 11:19:01;;;;;;;;;;;;;;;31.35;25.81;100024.36;1724283;81;20930;-69
2021/10/12 11:21:28;;;;;;;10.83;5.87;;;;;;;31.37;25.61;100022.14;1728501;81;20183;-71